Time;durP1;ratioP1;P1;durP2;ratioP2;P2;SDS_P1;SDS_P2;PMS_P1;PMS_P2;Temp;Humidity;BMP_temperature;BMP_pressure;BME280_temperature;BME280_humidity;BME280_pressure;Samples;Min_cycle;Max_cycle;Signal;HPM_P1;HPM_P2
2020/12/26 00:04:50;;;;;;;20.65;16.05;;;;;;;;;;10442388;27;20066;-62
2020/12/26 00:09:48;;;;;;;21.50;16.65;;;;;;;;;;10442227;27;20039;-63
2020/12/26 00:14:46;;;;;;;21.63;15.82;;;;;;;;;;10444478;27;20069;-62
2020/12/26 00:19:43;;;;;;;23.65;17.45;;;;;;;;;;10443528;27;20055;-62
2020/12/26 00:24:41;;;;;;;26.23;18.85;;;;;;;;;;10444313;27;20411;-63
2020/12/26 00:29:39;;;;;;;25.55;20.35;;;;;;;;;;10441762;27;20070;-62
2020/12/26 00:34:38;;;;;;;22.13;17.95;;;;;;;;;;10442849;27;20067;-61
2020/12/26 00:39:36;;;;;;;24.33;20.35;;;;;;;;;;10444735;27;20046;-62
2020/12/26 00:44:34;;;;;;;33.33;23.00;;;;;;;;;;10441460;27;20074;-62
2020/12/26 00:49:31;;;;;;;26.23;21.08;;;;;;;;;;10443889;27;20061;-62
2020/12/26 00:54:29;;;;;;;28.60;23.42;;;;;;;;;;10422323;27;20070;-61
2020/12/26 00:59:26;;;;;;;28.38;23.23;;;;;;;;;;10424402;27;20050;-62
2020/12/26 01:04:25;;;;;;;30.42;25.02;;;;;;;;;;10442995;27;20050;-62
2020/12/26 01:09:22;;;;;;;28.90;23.38;;;;;;;;;;10443166;27;20035;-62
2020/12/26 01:14:20;;;;;;;35.60;25.08;;;;;;;;;;10442193;27;20063;-62
2020/12/26 01:19:17;;;;;;;34.67;26.70;;;;;;;;;;10443140;27;20047;-62
2020/12/26 01:24:15;;;;;;;37.58;29.17;;;;;;;;;;10442591;27;20444;-62
2020/12/26 01:29:13;;;;;;;38.58;30.08;;;;;;;;;;10441611;27;20050;-62
2020/12/26 01:34:10;;;;;;;35.40;29.25;;;;;;;;;;10442753;27;20067;-62
2020/12/26 01:39:08;;;;;;;45.25;30.52;;;;;;;;;;10439492;27;20043;-63
2020/12/26 01:44:07;;;;;;;33.90;29.85;;;;;;;;;;10439261;27;20040;-62
2020/12/26 01:49:05;;;;;;;36.65;31.65;;;;;;;;;;10438253;27;20039;-62
2020/12/26 01:54:03;;;;;;;37.13;32.42;;;;;;;;;;10441290;27;20130;-62
2020/12/26 01:59:00;;;;;;;37.67;32.67;;;;;;;;;;10439462;27;20038;-62
2020/12/26 02:03:58;;;;;;;43.20;33.15;;;;;;;;;;10440915;27;20046;-63
2020/12/26 02:08:58;;;;;;;37.80;32.47;;;;;;;;;;10440158;27;20082;-62
2020/12/26 02:13:56;;;;;;;43.55;34.13;;;;;;;;;;10435458;27;20070;-62
2020/12/26 02:18:54;;;;;;;40.35;33.45;;;;;;;;;;10438751;27;20457;-61
2020/12/26 02:23:52;;;;;;;45.20;36.53;;;;;;;;;;10440636;27;20449;-62
2020/12/26 02:28:49;;;;;;;44.28;37.15;;;;;;;;;;10434742;27;20472;-62
2020/12/26 02:33:47;;;;;;;47.03;38.58;;;;;;;;;;10439039;27;20062;-62
2020/12/26 02:38:44;;;;;;;50.08;41.42;;;;;;;;;;10438757;27;20413;-62
2020/12/26 02:43:43;;;;;;;51.80;42.28;;;;;;;;;;10438406;27;20074;-63
2020/12/26 02:48:41;;;;;;;56.20;45.38;;;;;;;;;;10437180;27;20104;-63
2020/12/26 02:53:38;;;;;;;45.55;39.25;;;;;;;;;;10438897;28;20079;-61
2020/12/26 02:58:37;;;;;;;47.65;37.60;;;;;;;;;;10439613;28;20393;-64
2020/12/26 03:03:35;;;;;;;48.08;40.67;;;;;;;;;;10438406;28;20043;-61
2020/12/26 03:08:32;;;;;;;42.75;34.58;;;;;;;;;;10438663;28;20050;-62
2020/12/26 03:13:29;;;;;;;41.55;35.00;;;;;;;;;;10438602;28;20073;-61
2020/12/26 03:18:27;;;;;;;41.97;34.90;;;;;;;;;;10437701;28;20066;-61
2020/12/26 03:23:42;;;;;;;45.63;36.28;;;;;;;;;;10437518;28;20062;-62
2020/12/26 03:28:39;;;;;;;47.47;36.80;;;;;;;;;;10438036;28;20062;-61
2020/12/26 03:33:37;;;;;;;47.67;38.85;;;;;;;;;;10437731;28;20079;-62
2020/12/26 03:38:34;;;;;;;45.75;35.30;;;;;;;;;;10438394;28;20069;-61
2020/12/26 03:43:33;;;;;;;42.50;34.40;;;;;;;;;;10437129;28;20512;-61
2020/12/26 03:48:30;;;;;;;50.60;38.90;;;;;;;;;;10436477;27;20046;-61
2020/12/26 03:53:28;;;;;;;46.42;37.90;;;;;;;;;;10441564;27;20066;-61
2020/12/26 03:58:25;;;;;;;54.15;39.97;;;;;;;;;;10445510;27;20093;-61
2020/12/26 04:03:23;;;;;;;64.07;48.42;;;;;;;;;;10444509;27;20047;-62
2020/12/26 04:08:21;;;;;;;46.60;36.03;;;;;;;;;;10446204;27;20046;-62
2020/12/26 04:13:18;;;;;;;46.40;35.30;;;;;;;;;;10444458;27;20074;-62
2020/12/26 04:18:15;;;;;;;52.58;37.72;;;;;;;;;;10444696;27;20528;-63
2020/12/26 04:23:13;;;;;;;43.53;35.58;;;;;;;;;;10438033;27;20105;-62
2020/12/26 04:28:11;;;;;;;55.58;39.10;;;;;;;;;;10442323;27;20042;-62
2020/12/26 04:33:08;;;;;;;64.43;45.90;;;;;;;;;;10424572;27;20051;-62
2020/12/26 04:38:05;;;;;;;49.83;38.85;;;;;;;;;;10443300;27;20050;-61
2020/12/26 04:43:05;;;;;;;63.03;44.67;;;;;;;;;;10443798;27;20083;-62
2020/12/26 04:48:04;;;;;;;53.03;40.15;;;;;;;;;;10442861;27;20054;-62
2020/12/26 04:53:03;;;;;;;54.30;41.88;;;;;;;;;;10441722;27;20082;-62
2020/12/26 04:58:05;;;;;;;55.63;39.53;;;;;;;;;;10443746;27;20043;-62
2020/12/26 05:03:03;;;;;;;55.95;42.33;;;;;;;;;;10439299;27;20502;-62
2020/12/26 05:08:02;;;;;;;58.35;42.70;;;;;;;;;;10432216;27;20062;-60
2020/12/26 05:13:00;;;;;;;66.40;44.03;;;;;;;;;;10439637;27;20129;-61
2020/12/26 05:17:59;;;;;;;60.88;40.70;;;;;;;;;;10442697;27;20027;-61
2020/12/26 05:23:06;;;;;;;58.83;44.03;;;;;;;;;;10442730;27;20035;-61
2020/12/26 05:28:11;;;;;;;94.47;40.85;;;;;;;;;;10440164;27;20451;-59
2020/12/26 05:33:10;;;;;;;61.47;41.72;;;;;;;;;;10436682;27;20082;-62
2020/12/26 05:38:15;;;;;;;90.35;65.25;;;;;;;;;;10442071;27;20062;-62
2020/12/26 05:43:14;;;;;;;65.90;44.23;;;;;;;;;;10438194;27;20086;-62
2020/12/26 05:48:14;;;;;;;69.20;49.00;;;;;;;;;;10440947;27;20067;-61
2020/12/26 05:53:13;;;;;;;74.97;46.33;;;;;;;;;;10439169;27;20066;-62
2020/12/26 05:58:11;;;;;;;69.57;44.35;;;;;;;;;;10439144;27;20074;-61
2020/12/26 06:03:23;;;;;;;59.20;36.05;;;;;;;;;;10440683;27;20047;-62
2020/12/26 06:08:20;;;;;;;33.25;21.73;;;;;;;;;;10438799;27;20043;-63
2020/12/26 06:13:18;;;;;;;22.25;14.38;;;;;;;;;;10440330;27;20055;-61
2020/12/26 06:18:16;;;;;;;21.70;12.07;;;;;;;;;;10438896;27;20079;-61
2020/12/26 06:23:21;;;;;;;21.00;10.95;;;;;;;;;;10440267;27;20075;-62
2020/12/26 06:28:25;;;;;;;32.17;16.57;;;;;;;;;;10440201;27;20479;-61
2020/12/26 06:33:25;;;;;;;17.13;9.55;;;;;;;;;;10438634;27;20078;-61
2020/12/26 06:38:26;;;;;;;30.42;17.88;;;;;;;;;;10439315;27;20039;-62
2020/12/26 06:43:43;;;;;;;14.90;7.55;;;;;;;;;;10420059;27;20405;-61
2020/12/26 06:48:41;;;;;;;11.45;8.50;;;;;;;;;;10437540;27;20046;-61
2020/12/26 06:53:40;;;;;;;32.70;15.55;;;;;;;;;;10438796;28;20067;-61
2020/12/26 06:58:52;;;;;;;18.38;11.30;;;;;;;;;;10439445;28;20031;-62
2020/12/26 07:04:04;;;;;;;32.97;15.65;;;;;;;;;;10435554;28;20349;-61
2020/12/26 07:09:03;;;;;;;14.38;8.40;;;;;;;;;;10432433;28;20360;-61
2020/12/26 07:14:01;;;;;;;14.30;9.85;;;;;;;;;;10434528;28;20508;-62
2020/12/26 07:19:18;;;;;;;18.48;11.05;;;;;;;;;;10433721;28;20063;-61
2020/12/26 07:24:16;;;;;;;17.80;10.07;;;;;;;;;;10438244;27;20043;-61
2020/12/26 07:29:22;;;;;;;22.27;13.10;;;;;;;;;;10444322;27;20051;-62
2020/12/26 07:34:43;;;;;;;17.92;10.60;;;;;;;;;;10442985;27;20070;-62
2020/12/26 07:39:45;;;;;;;13.18;9.10;;;;;;;;;;10425072;27;20075;-62
2020/12/26 07:44:42;;;;;;;12.80;9.90;;;;;;;;;;10442451;27;20084;-62
2020/12/26 07:49:42;;;;;;;16.65;10.52;;;;;;;;;;10441689;27;20482;-61
2020/12/26 07:54:39;;;;;;;33.17;18.95;;;;;;;;;;10442553;27;20074;-62
2020/12/26 07:59:39;;;;;;;20.83;12.48;;;;;;;;;;10442145;27;20492;-62
2020/12/26 08:04:42;;;;;;;21.63;13.98;;;;;;;;;;10444126;27;20063;-62
2020/12/26 08:09:47;;;;;;;30.73;14.32;;;;;;;;;;10442894;27;20444;-62
2020/12/26 08:14:55;;;;;;;38.47;21.88;;;;;;;;;;10442622;27;20074;-63
2020/12/26 08:19:59;;;;;;;30.27;18.42;;;;;;;;;;10441088;27;20516;-62
2020/12/26 08:25:04;;;;;;;19.42;12.43;;;;;;;;;;10440713;27;20050;-62
2020/12/26 08:30:07;;;;;;;13.18;7.95;;;;;;;;;;10442281;27;20489;-62
2020/12/26 08:35:07;;;;;;;20.80;12.77;;;;;;;;;;10442032;27;20074;-62
2020/12/26 08:40:05;;;;;;;19.85;12.63;;;;;;;;;;10422248;27;20061;-63
2020/12/26 08:45:23;;;;;;;13.15;8.73;;;;;;;;;;10442331;27;20060;-63
2020/12/26 08:50:20;;;;;;;15.32;10.10;;;;;;;;;;10440227;27;20081;-62
2020/12/26 08:55:17;;;;;;;14.98;9.75;;;;;;;;;;10441283;27;20074;-62
2020/12/26 09:00:16;;;;;;;25.35;16.23;;;;;;;;;;10440313;27;20064;-62
2020/12/26 09:05:23;;;;;;;22.35;15.68;;;;;;;;;;10437467;27;20090;-61
2020/12/26 09:10:21;;;;;;;16.25;10.48;;;;;;;;;;10439114;27;20070;-61
2020/12/26 09:15:19;;;;;;;22.40;11.35;;;;;;;;;;10439248;27;20081;-61
2020/12/26 09:20:16;;;;;;;22.23;12.63;;;;;;;;;;10439190;27;20063;-61
2020/12/26 09:25:31;;;;;;;24.73;11.65;;;;;;;;;;10439981;27;20095;-61
2020/12/26 09:30:29;;;;;;;20.20;12.60;;;;;;;;;;10436686;27;20032;-61
2020/12/26 09:35:27;;;;;;;36.53;20.77;;;;;;;;;;10438559;27;20100;-61
2020/12/26 09:40:31;;;;;;;31.80;18.77;;;;;;;;;;10439324;27;20074;-62
2020/12/26 09:45:28;;;;;;;21.35;15.10;;;;;;;;;;10439471;27;20051;-62
2020/12/26 09:50:27;;;;;;;19.45;12.68;;;;;;;;;;10438608;27;20074;-61
2020/12/26 09:55:24;;;;;;;35.30;23.40;;;;;;;;;;10438291;27;20456;-61
2020/12/26 10:00:22;;;;;;;44.08;24.70;;;;;;;;;;10439031;27;20480;-61
2020/12/26 10:05:19;;;;;;;27.23;16.52;;;;;;;;;;10437841;27;20472;-60
2020/12/26 10:10:17;;;;;;;23.15;13.77;;;;;;;;;;10437894;27;20066;-60
2020/12/26 10:15:18;;;;;;;23.85;18.45;;;;;;;;;;10438239;27;20086;-61
2020/12/26 10:20:15;;;;;;;27.17;17.33;;;;;;;;;;10437127;27;20043;-62
2020/12/26 10:25:12;;;;;;;35.75;24.08;;;;;;;;;;10437574;27;20059;-60
2020/12/26 10:30:10;;;;;;;32.38;21.00;;;;;;;;;;10435975;27;20464;-61
2020/12/26 10:35:08;;;;;;;29.60;20.33;;;;;;;;;;10437087;27;20506;-61
2020/12/26 10:40:05;;;;;;;39.10;25.98;;;;;;;;;;10436921;27;20043;-61
2020/12/26 10:45:03;;;;;;;28.52;18.55;;;;;;;;;;10437889;27;20055;-61
2020/12/26 10:50:01;;;;;;;29.27;21.08;;;;;;;;;;10437505;27;20070;-60
2020/12/26 10:54:59;;;;;;;39.53;23.38;;;;;;;;;;10437105;28;20082;-60
2020/12/26 10:59:57;;;;;;;27.30;17.60;;;;;;;;;;10440097;27;20071;-60
2020/12/26 11:04:54;;;;;;;21.73;15.75;;;;;;;;;;10446386;27;20047;-62
2020/12/26 11:09:52;;;;;;;34.15;22.50;;;;;;;;;;10441524;27;20043;-60
2020/12/26 11:14:50;;;;;;;34.42;25.30;;;;;;;;;;10443648;27;20487;-62
2020/12/26 11:19:56;;;;;;;19.90;14.23;;;;;;;;;;10444040;27;20066;-62
2020/12/26 11:25:11;;;;;;;29.08;19.75;;;;;;;;;;10442501;27;20089;-62
2020/12/26 11:30:08;;;;;;;33.58;21.35;;;;;;;;;;10444425;27;20050;-61
2020/12/26 11:35:05;;;;;;;46.92;30.70;;;;;;;;;;10444483;27;20077;-62
2020/12/26 11:40:03;;;;;;;22.33;14.65;;;;;;;;;;10443913;27;20487;-62
2020/12/26 11:45:01;;;;;;;24.38;16.92;;;;;;;;;;10443996;27;20070;-61
2020/12/26 11:49:59;;;;;;;20.52;13.45;;;;;;;;;;10443077;27;20054;-61
2020/12/26 11:54:56;;;;;;;45.60;28.00;;;;;;;;;;10425053;27;20463;-62
2020/12/26 11:59:54;;;;;;;47.05;28.75;;;;;;;;;;10444114;27;20518;-60
2020/12/26 12:04:52;;;;;;;34.80;20.83;;;;;;;;;;10440896;27;20451;-60
2020/12/26 12:09:49;;;;;;;30.05;20.00;;;;;;;;;;10441794;27;20081;-60
2020/12/26 12:14:46;;;;;;;35.53;25.50;;;;;;;;;;10442258;27;20067;-60
2020/12/26 12:19:44;;;;;;;44.42;30.52;;;;;;;;;;10442865;27;20071;-61
2020/12/26 12:24:42;;;;;;;45.13;27.42;;;;;;;;;;10442939;27;20035;-61
2020/12/26 12:29:39;;;;;;;47.75;33.33;;;;;;;;;;10442402;27;20039;-60
2020/12/26 12:34:36;;;;;;;54.08;33.28;;;;;;;;;;10441895;27;20070;-60
2020/12/26 12:39:34;;;;;;;29.88;22.00;;;;;;;;;;10441128;27;20066;-59
2020/12/26 12:44:32;;;;;;;28.73;20.83;;;;;;;;;;10441575;27;20191;-61
2020/12/26 12:49:29;;;;;;;33.15;26.33;;;;;;;;;;10440963;27;20059;-62
2020/12/26 12:54:27;;;;;;;29.35;21.35;;;;;;;;;;10441716;27;20067;-61
2020/12/26 12:59:25;;;;;;;21.70;17.98;;;;;;;;;;10441515;27;20078;-62
2020/12/26 13:04:23;;;;;;;41.33;27.52;;;;;;;;;;10441312;27;20070;-62
2020/12/26 13:09:21;;;;;;;44.65;28.88;;;;;;;;;;10440173;27;20063;-61
2020/12/26 13:14:18;;;;;;;55.10;31.00;;;;;;;;;;10440775;27;20046;-62
2020/12/26 13:19:15;;;;;;;23.30;20.80;;;;;;;;;;10440585;27;20073;-63
2020/12/26 13:24:13;;;;;;;24.85;21.25;;;;;;;;;;10421391;27;20070;-62
2020/12/26 13:29:11;;;;;;;25.65;20.05;;;;;;;;;;10437797;27;20046;-63
2020/12/26 13:34:08;;;;;;;27.13;19.58;;;;;;;;;;10439921;27;20074;-63
2020/12/26 13:39:06;;;;;;;27.63;20.00;;;;;;;;;;10439389;27;20062;-63
2020/12/26 13:44:04;;;;;;;28.42;22.40;;;;;;;;;;10439544;27;20087;-61
2020/12/26 13:49:02;;;;;;;26.88;22.00;;;;;;;;;;10439461;27;20394;-63
2020/12/26 13:53:59;;;;;;;34.30;24.15;;;;;;;;;;10438218;27;20083;-63
2020/12/26 13:58:56;;;;;;;35.70;23.48;;;;;;;;;;10435071;27;20472;-63
2020/12/26 14:03:56;;;;;;;27.38;21.98;;;;;;;;;;10416421;27;20046;-62
2020/12/26 14:08:54;;;;;;;32.45;24.02;;;;;;;;;;10413618;27;20062;-63
2020/12/26 14:13:51;;;;;;;34.97;26.15;;;;;;;;;;10437626;27;20134;-62
2020/12/26 14:18:49;;;;;;;67.95;39.15;;;;;;;;;;10438215;27;20459;-63
2020/12/26 14:23:47;;;;;;;126.75;65.90;;;;;;;;;;10437210;27;20073;-62
2020/12/26 14:28:45;;;;;;;124.13;69.80;;;;;;;;;;10438570;27;20130;-62
2020/12/26 14:33:42;;;;;;;72.50;44.55;;;;;;;;;;10437571;27;20059;-63
2020/12/26 14:38:40;;;;;;;61.50;43.15;;;;;;;;;;10437047;27;20046;-63
2020/12/26 14:43:38;;;;;;;114.45;68.40;;;;;;;;;;10438497;27;20485;-63
2020/12/26 14:48:35;;;;;;;313.30;180.95;;;;;;;;;;10437307;27;20047;-62
2020/12/26 14:53:32;;;;;;;74.55;46.30;;;;;;;;;;10435299;27;20067;-63
2020/12/26 14:58:30;;;;;;;57.35;37.28;;;;;;;;;;10437921;27;20473;-63
2020/12/26 15:03:28;;;;;;;49.20;31.15;;;;;;;;;;10437042;28;20439;-63
2020/12/26 15:08:25;;;;;;;45.00;33.53;;;;;;;;;;10437122;28;20089;-62
2020/12/26 15:13:22;;;;;;;79.25;50.83;;;;;;;;;;10437747;28;20400;-62
2020/12/26 15:18:20;;;;;;;63.85;37.28;;;;;;;;;;10437273;28;20392;-62
2020/12/26 15:23:18;;;;;;;64.93;42.13;;;;;;;;;;10434043;28;20089;-62
2020/12/26 15:28:15;;;;;;;72.28;40.95;;;;;;;;;;10432122;28;20082;-61
2020/12/26 15:33:13;;;;;;;69.93;43.42;;;;;;;;;;10432453;28;20461;-62
2020/12/26 15:38:11;;;;;;;75.85;56.55;;;;;;;;;;10411150;28;20344;-62
2020/12/26 15:43:19;;;;;;;47.92;34.00;;;;;;;;;;10432614;28;20055;-63
2020/12/26 15:48:28;;;;;;;39.25;27.13;;;;;;;;;;10432205;27;20070;-62
2020/12/26 15:53:26;;;;;;;53.22;33.78;;;;;;;;;;10437452;27;20101;-62
2020/12/26 15:58:24;;;;;;;32.20;25.55;;;;;;;;;;10430038;27;20152;-62
2020/12/26 16:03:21;;;;;;;26.38;20.88;;;;;;;;;;10445391;27;20058;-62
2020/12/26 16:08:19;;;;;;;33.45;22.77;;;;;;;;;;10438380;27;20054;-62
2020/12/26 16:13:16;;;;;;;28.05;19.73;;;;;;;;;;10433578;27;20082;-64
2020/12/26 16:18:15;;;;;;;24.20;19.05;;;;;;;;;;10426598;27;20066;-62
2020/12/26 16:23:12;;;;;;;27.67;21.95;;;;;;;;;;10429752;27;20073;-62
2020/12/26 16:28:11;;;;;;;31.02;20.13;;;;;;;;;;10432629;27;20067;-64
2020/12/26 16:33:09;;;;;;;34.50;23.55;;;;;;;;;;10431779;27;20063;-63
2020/12/26 16:38:07;;;;;;;32.92;23.83;;;;;;;;;;10436646;27;20656;-63
2020/12/26 16:43:04;;;;;;;25.40;18.13;;;;;;;;;;10434304;27;20135;-63
2020/12/26 16:48:02;;;;;;;31.88;23.58;;;;;;;;;;10426636;27;20075;-63
2020/12/26 16:52:59;;;;;;;51.15;33.58;;;;;;;;;;10437773;27;20069;-63
2020/12/26 16:57:58;;;;;;;27.35;18.15;;;;;;;;;;10425007;27;20067;-63
2020/12/26 17:02:55;;;;;;;31.13;21.17;;;;;;;;;;10438103;27;20046;-64
2020/12/26 17:07:53;;;;;;;50.72;33.13;;;;;;;;;;10411503;27;21040;-64
2020/12/26 17:12:50;;;;;;;71.30;40.65;;;;;;;;;;10438495;27;20077;-64
2020/12/26 17:17:50;;;;;;;52.00;37.10;;;;;;;;;;10437759;27;21489;-64
2020/12/26 17:22:47;;;;;;;30.00;18.05;;;;;;;;;;10431644;27;20063;-63
2020/12/26 17:27:45;;;;;;;33.70;21.60;;;;;;;;;;10420855;27;20047;-63
2020/12/26 17:32:48;;;;;;;25.77;18.45;;;;;;;;;;10439556;27;20539;-62
2020/12/26 17:37:46;;;;;;;25.25;18.13;;;;;;;;;;10423507;27;20051;-62
2020/12/26 17:42:45;;;;;;;22.17;17.83;;;;;;;;;;10432343;27;20085;-62
2020/12/26 17:47:42;;;;;;;21.52;15.77;;;;;;;;;;10432966;27;20067;-63
2020/12/26 17:52:39;;;;;;;18.80;13.68;;;;;;;;;;10434551;27;20144;-63
2020/12/26 17:57:38;;;;;;;16.88;13.30;;;;;;;;;;10415771;27;20047;-62
2020/12/26 18:02:39;;;;;;;22.80;15.82;;;;;;;;;;10427530;27;20321;-63
2020/12/26 18:07:36;;;;;;;22.23;14.10;;;;;;;;;;10437500;27;20071;-61
2020/12/26 18:12:34;;;;;;;20.85;12.30;;;;;;;;;;10413964;27;20500;-62
2020/12/26 18:17:32;;;;;;;46.90;24.30;;;;;;;;;;10426979;27;20599;-62
2020/12/26 18:22:29;;;;;;;22.23;13.00;;;;;;;;;;10419606;27;20070;-64
2020/12/26 18:27:27;;;;;;;35.95;24.05;;;;;;;;;;10431900;27;20073;-64
2020/12/26 18:32:27;;;;;;;24.23;19.27;;;;;;;;;;10425510;27;20077;-64
2020/12/26 18:37:25;;;;;;;18.52;12.77;;;;;;;;;;10436391;27;20576;-63
2020/12/26 18:42:23;;;;;;;18.65;13.85;;;;;;;;;;10439093;27;20035;-62
2020/12/26 18:47:26;;;;;;;14.95;11.27;;;;;;;;;;10434089;27;20074;-63
2020/12/26 18:52:28;;;;;;;14.48;10.60;;;;;;;;;;10438142;27;20071;-63
2020/12/26 18:57:26;;;;;;;18.33;11.90;;;;;;;;;;10438331;27;20054;-63
2020/12/26 19:02:23;;;;;;;15.43;11.57;;;;;;;;;;10439336;28;20070;-63
2020/12/26 19:07:21;;;;;;;9.77;7.32;;;;;;;;;;10438420;28;20518;-64
2020/12/26 19:12:21;;;;;;;12.00;8.25;;;;;;;;;;10439493;28;20038;-64
2020/12/26 19:17:19;;;;;;;20.30;14.70;;;;;;;;;;10437292;27;20062;-62
2020/12/26 19:22:17;;;;;;;11.98;8.35;;;;;;;;;;10442033;27;20481;-61
2020/12/26 19:27:14;;;;;;;9.43;7.18;;;;;;;;;;10446342;27;20074;-62
2020/12/26 19:32:13;;;;;;;22.20;14.18;;;;;;;;;;10444679;27;20066;-63
2020/12/26 19:37:10;;;;;;;10.90;8.95;;;;;;;;;;10445954;27;20457;-62
2020/12/26 19:42:07;;;;;;;6.45;4.97;;;;;;;;;;10422180;27;20046;-63
2020/12/26 19:47:06;;;;;;;7.55;5.85;;;;;;;;;;10431618;27;20078;-65
2020/12/26 19:52:05;;;;;;;13.90;8.82;;;;;;;;;;10434822;27;20063;-64
2020/12/26 19:57:03;;;;;;;19.83;11.88;;;;;;;;;;10439199;27;20069;-63
2020/12/26 20:02:00;;;;;;;5.45;4.07;;;;;;;;;;10444354;27;20035;-64
2020/12/26 20:07:00;;;;;;;6.43;4.65;;;;;;;;;;10433968;27;20082;-64
2020/12/26 20:12:00;;;;;;;5.32;4.50;;;;;;;;;;10434853;27;20506;-65
2020/12/26 20:17:00;;;;;;;10.57;7.45;;;;;;;;;;10443018;27;20063;-64
2020/12/26 20:21:58;;;;;;;5.50;4.30;;;;;;;;;;10436101;27;20051;-65
2020/12/26 20:26:55;;;;;;;6.68;6.00;;;;;;;;;;10434688;27;20078;-65
2020/12/26 20:31:56;;;;;;;6.93;6.05;;;;;;;;;;10428523;27;20063;-62
2020/12/26 20:36:53;;;;;;;8.85;7.07;;;;;;;;;;10407166;27;20079;-63
2020/12/26 20:41:51;;;;;;;10.50;8.10;;;;;;;;;;10424868;27;20074;-62
2020/12/26 20:46:51;;;;;;;4.85;4.35;;;;;;;;;;10418494;27;20085;-64
2020/12/26 20:51:49;;;;;;;6.05;5.10;;;;;;;;;;10441940;27;20059;-63
2020/12/26 20:56:47;;;;;;;6.15;5.47;;;;;;;;;;10443287;27;20067;-63
2020/12/26 21:01:44;;;;;;;5.53;4.72;;;;;;;;;;10442943;27;20035;-63
2020/12/26 21:06:42;;;;;;;11.48;6.68;;;;;;;;;;10442239;27;20074;-63
2020/12/26 21:11:43;;;;;;;10.85;7.00;;;;;;;;;;10443376;27;20484;-63
2020/12/26 21:16:44;;;;;;;10.85;7.78;;;;;;;;;;10442095;27;20035;-63
2020/12/26 21:21:41;;;;;;;7.28;6.13;;;;;;;;;;10442971;27;20066;-63
2020/12/26 21:26:39;;;;;;;8.35;5.40;;;;;;;;;;10441550;27;20074;-63
2020/12/26 21:31:37;;;;;;;6.47;5.38;;;;;;;;;;10442450;27;20070;-62
2020/12/26 21:36:35;;;;;;;5.75;5.10;;;;;;;;;;10439832;27;20043;-62
2020/12/26 21:41:33;;;;;;;9.35;6.45;;;;;;;;;;10425450;27;20066;-63
2020/12/26 21:46:30;;;;;;;9.90;6.60;;;;;;;;;;10438485;27;20075;-64
2020/12/26 21:51:28;;;;;;;5.07;4.55;;;;;;;;;;10439162;27;20035;-64
2020/12/26 21:56:26;;;;;;;5.80;5.25;;;;;;;;;;10441090;27;20070;-64
2020/12/26 22:01:23;;;;;;;5.30;4.80;;;;;;;;;;10441960;27;20035;-64
2020/12/26 22:06:20;;;;;;;12.73;8.23;;;;;;;;;;10441080;27;20506;-63
2020/12/26 22:11:22;;;;;;;6.47;5.88;;;;;;;;;;10440430;27;20038;-64
2020/12/26 22:16:19;;;;;;;5.63;5.13;;;;;;;;;;10439784;27;20081;-63
2020/12/26 22:21:23;;;;;;;7.32;6.63;;;;;;;;;;10440529;27;20074;-63
2020/12/26 22:26:23;;;;;;;7.57;6.82;;;;;;;;;;10438251;27;20101;-63
2020/12/26 22:31:20;;;;;;;8.00;7.20;;;;;;;;;;10438597;27;20035;-63
2020/12/26 22:36:18;;;;;;;7.60;6.88;;;;;;;;;;10438669;27;20381;-63
2020/12/26 22:41:16;;;;;;;7.43;6.72;;;;;;;;;;10439695;27;20059;-64
2020/12/26 22:46:15;;;;;;;7.63;6.25;;;;;;;;;;10438319;27;20082;-64
2020/12/26 22:51:17;;;;;;;6.00;5.40;;;;;;;;;;10436201;27;20071;-63
2020/12/26 22:56:16;;;;;;;6.97;6.30;;;;;;;;;;10436516;27;20079;-63
2020/12/26 23:01:14;;;;;;;7.57;6.70;;;;;;;;;;10438397;27;20051;-63
2020/12/26 23:06:22;;;;;;;6.28;5.63;;;;;;;;;;10437273;28;20071;-63
2020/12/26 23:11:19;;;;;;;8.82;6.03;;;;;;;;;;10438330;28;20067;-63
2020/12/26 23:16:17;;;;;;;6.25;5.65;;;;;;;;;;10438257;28;20087;-64
2020/12/26 23:21:18;;;;;;;6.75;5.95;;;;;;;;;;10439447;28;20086;-63
2020/12/26 23:26:16;;;;;;;5.68;5.18;;;;;;;;;;10436364;28;20772;-64
2020/12/26 23:31:14;;;;;;;5.97;5.47;;;;;;;;;;10435997;28;20062;-63
2020/12/26 23:36:13;;;;;;;4.75;4.35;;;;;;;;;;10438490;28;20074;-65
2020/12/26 23:41:13;;;;;;;5.32;4.80;;;;;;;;;;10436306;28;20066;-61
2020/12/26 23:46:10;;;;;;;6.07;5.40;;;;;;;;;;10434709;28;20082;-61
2020/12/26 23:51:08;;;;;;;5.38;4.88;;;;;;;;;;10437746;28;20522;-60
2020/12/26 23:56:10;;;;;;;7.68;6.18;;;;;;;;;;10437578;28;20232;-60
